Forside
METAR-TAF:

METAR-TAF

Lufthavne :

Lewis University Airport

Romeoville, Illinois, USA

Breddekreds: 41-36-30N, længdekreds: 088-05-39W, højde: 205 m

Aktuelle vejr

Denne rapport blev lavet for 35 minutter siden, kl. 00:35 UTC
Vind 6 kt fra vest
Temperatur -8°C
Fugtighed 67%
Tryk 1026 hPa
Sigt: 16.1 km
skyfri

METAR: KLOT 110035Z AUTO 26006KT 10SM CLR M08/M13 A3031 RMK AO2 T10801130

Tid: 19:10 (01:10 UTC)


TAF: fraværende

Vejrobservationer og prognoser fra mere end 4000 lufthavne (METAR og TAF).

De gule og røde prikker repræsenterer de meteorologiske stationer.

Flyt musen over at se navnet på stationen.

Så klik over at se vejr observationer og prognoser.

At skifte det kort: Klik på de grønne knapper med et sort kors for at zoome ind; på den grønne knap med en bindestreg for at zoome ud; eller på de grønne pile for tilstødende kort.


METAR-TAF: